Aérodrome :
LOGIN :

S'inscrire | Disclaimer

   EN    FR    IT 

 










Légende :    VFR   VFR Marginal   IFR   IFR Intensif   IFR Très Intensif
Visi : 
Plafond : 
>= 8 km
>= 3000ft
5 à 8 km
1000 à 3000 ft
1500m à 5 km
500 à 1000 ft
800 à 1500m
200 à 500 ft
< 800m
< 200 ft
Symboles :   Orages  Brouillard  Fortes neiges  Fortes précipitations  Vent > 20 kt
SIGMETs :   Divers  Orages  Givrage  Turbulence  Onde Orograph.  Cendres Volcan.






- Altitude de l'aérodrome : 358 ft


EGTC - Cranfield

DERNIER METAR :
  • 141320Z 21009KT 9999 FEW031 BKN037 18/11 Q1016

METARs EXPIRÉS :
  • 141250Z 28009KT 240V320 9999 BKN030 18/11 Q1016
  • 141150Z 30009KT 270V350 9999 SCT029 18/12 Q1016
  • 141120Z 30008KT 270V350 9999 SCT028 17/12 Q1017
  • 141050Z 32010KT 290V350 9999 FEW026 17/11 Q1017

TAF TAF EGTC
Valide du 14 à 09h jusqu'au 14 à 17h UTC


140803Z 1409/1417 33006KT 9999 SCT018
PROB30
TEMPO 1409/1412 8000 -SHRA BKN012



MET'MAP, la Météo Aéronautique d'un coup d'oeil ! - Copyright ORBIFLY Décembre 2007 - Disclaimer

ORBIFLY MET'MAP TEAM :

Programmation & Développement : Alexandra Zaïnal
Sur une idée originale de : Baudouin d'Aumeries
Assistance à la programmation : Marc-Olivier Méhu
Soutien technique & logistique : Manuel Goepfert

Contact : metmap@orbifly.com




SOURCES & CREDITS :

   NOAA